Главная страница
METAR-TAF:

METAR-TAF

Аэропорты :

Sveg, Швеция

широта: 62-02-52N, долгота: 014-25-22E, высота над уровнем моря: 359 м

Текущие метеонаблюдения

Эта сводка был подготовлена 35 минут назад, в 15:50 UTC
Ветер 1 Узел переменных направлений
Температура -13°C
Влажность 92%
Давление 1023 hPa
Видимость 10 км и более
Нет облачности ниже 1500 м, и нет кучево-дождевой облачности

METAR: ESND 151550Z VRB01KT CAVOK M13/M14 Q1023

Время: 17:25 (16:25 UTC)


TAF: отсутствует

Метеонаблюдения и прогнозы для более 4000 аэропортов (сводки METAR и TAF).

Имеющиеся станции представлены на карте желтыми и красными точками.

Чтобы увидеть название станции, наведите на нее мышь.

Затем щелкните, чтобы увидеть метеонаблюдения и метеопрогнозы.

Управление картой: чтобы увеличить масштаб, щелкните зеленые кнопки с черным крестиком; чтобы уменьшить масштаб, щелкните зеленую кнопку с тире; для просмотра соседних карт щелкайте зеленые стрелки.


METAR-TAF: